Time;durP1;ratioP1;P1;durP2;ratioP2;P2;SDS_P1;SDS_P2;PMS_P1;PMS_P2;Temp;Humidity;BMP_temperature;BMP_pressure;BME280_temperature;BME280_humidity;BME280_pressure;Samples;Min_cycle;Max_cycle;Signal;HPM_P1;HPM_P2
2021/09/27 00:01:11;;;;;;;7.07;4.40;;;19.80;96.70;;;;;;5086024;27;20079;-82
2021/09/27 00:03:40;;;;;;;6.55;4.57;;;19.80;96.70;;;;;;5088739;27;20047;-81
2021/09/27 00:06:09;;;;;;;7.15;4.78;;;19.80;96.70;;;;;;5067907;27;20556;-82
2021/09/27 00:08:38;;;;;;;6.00;4.43;;;19.80;96.70;;;;;;5083837;28;20048;-84
2021/09/27 00:11:09;;;;;;;8.20;4.90;;;19.80;96.70;;;;;;5084762;28;20532;-84
2021/09/27 00:13:42;;;;;;;8.02;4.40;;;19.80;96.70;;;;;;5070244;28;20047;-84
2021/09/27 00:16:11;;;;;;;8.00;4.70;;;19.80;96.70;;;;;;5087028;28;20043;-83
2021/09/27 00:18:40;;;;;;;8.15;5.15;;;19.80;96.70;;;;;;5072644;28;20040;-84
2021/09/27 00:21:18;;;;;;;7.47;4.70;;;19.90;96.70;;;;;;5086216;28;20122;-84
2021/09/27 00:23:47;;;;;;;7.18;4.22;;;19.90;96.70;;;;;;5087829;28;20092;-84
2021/09/27 00:26:16;;;;;;;5.20;4.53;;;19.90;96.70;;;;;;5088236;27;20074;-84
2021/09/27 00:28:46;;;;;;;6.25;4.78;;;19.80;96.70;;;;;;5086887;28;20035;-84
2021/09/27 00:31:15;;;;;;;8.15;5.10;;;19.80;96.70;;;;;;5088203;28;20036;-83
2021/09/27 00:33:44;;;;;;;8.80;4.38;;;19.80;96.70;;;;;;5101599;27;20054;-84
2021/09/27 00:36:14;;;;;;;7.88;5.28;;;19.70;96.70;;;;;;5105351;27;20035;-85
2021/09/27 00:38:43;;;;;;;6.95;4.75;;;19.70;96.70;;;;;;5096942;28;20074;-84
2021/09/27 00:41:15;;;;;;;8.23;5.05;;;19.70;96.70;;;;;;5087645;28;20035;-83
2021/09/27 00:43:46;;;;;;;7.03;4.55;;;19.70;96.70;;;;;;5102607;28;20563;-83
2021/09/27 00:46:17;;;;;;;7.68;5.18;;;19.70;96.70;;;;;;5070448;28;20050;-85
2021/09/27 00:48:45;;;;;;;6.72;5.18;;;19.70;96.70;;;;;;5104170;28;20039;-83
2021/09/27 00:51:18;;;;;;;6.75;4.53;;;19.70;96.70;;;;;;5081958;28;20044;-84
2021/09/27 00:53:49;;;;;;;8.05;5.07;;;19.60;96.70;;;;;;5082235;28;20508;-85
2021/09/27 00:56:21;;;;;;;6.72;4.35;;;19.60;96.70;;;;;;5086395;28;20056;-83
2021/09/27 00:58:52;;;;;;;5.53;4.50;;;19.60;96.70;;;;;;5066122;28;20446;-85
2021/09/27 01:01:21;;;;;;;10.25;5.18;;;19.60;96.70;;;;;;5068477;28;20493;-83
2021/09/27 01:03:50;;;;;;;9.23;5.07;;;19.60;96.70;;;;;;5084285;28;20046;-84
2021/09/27 01:06:32;;;;;;;8.27;4.93;;;19.60;96.70;;;;;;5076995;28;20047;-83
2021/09/27 01:09:09;;;;;;;7.78;4.65;;;19.60;96.70;;;;;;5081756;28;20073;-82
2021/09/27 01:12:18;;;;;;;7.70;5.40;;;19.50;96.70;;;;;;5085863;28;20037;-83
2021/09/27 01:15:34;;;;;;;8.38;5.20;;;19.40;96.70;;;;;;5006170;28;20380;-82
2021/09/27 01:18:14;;;;;;;7.45;5.15;;;19.50;96.70;;;;;;5005076;28;20045;-83
2021/09/27 01:21:18;;;;;;;6.38;4.72;;;19.50;96.70;;;;;;5003756;28;20046;-82
2021/09/27 01:24:19;;;;;;;7.07;5.05;;;19.50;96.70;;;;;;4985464;28;20046;-83
2021/09/27 01:27:25;;;;;;;7.70;5.10;;;19.50;96.70;;;;;;4961373;28;20574;-83
2021/09/27 01:30:34;;;;;;;6.65;5.03;;;19.40;96.70;;;;;;5004848;28;20054;-82
2021/09/27 01:33:10;;;;;;;8.55;5.43;;;19.40;96.70;;;;;;4989342;28;20064;-83
2021/09/27 01:35:48;;;;;;;8.98;5.35;;;19.40;96.70;;;;;;5002361;28;20093;-82
2021/09/27 01:38:27;;;;;;;8.90;4.68;;;19.40;96.70;;;;;;5001087;28;20060;-83
2021/09/27 01:41:14;;;;;;;8.18;4.97;;;19.40;96.70;;;;;;5002757;28;20229;-83
2021/09/27 01:43:48;;;;;;;11.20;5.03;;;19.50;96.70;;;;;;5003964;28;20062;-83
2021/09/27 01:46:27;;;;;;;8.25;5.20;;;19.40;96.70;;;;;;5039381;28;20579;-82
2021/09/27 01:49:02;;;;;;;6.50;4.72;;;19.40;96.70;;;;;;5062588;28;20394;-82
2021/09/27 01:51:41;;;;;;;7.15;4.95;;;19.40;96.70;;;;;;5060867;28;20052;-82
2021/09/27 01:54:16;;;;;;;8.85;5.22;;;19.50;96.70;;;;;;5088543;28;20549;-82
2021/09/27 01:56:53;;;;;;;8.15;5.13;;;19.50;96.70;;;;;;5100415;28;20040;-82
2021/09/27 01:59:34;;;;;;;7.57;4.95;;;19.40;96.70;;;;;;5086500;28;20040;-82
2021/09/27 02:02:08;;;;;;;12.23;5.82;;;19.30;96.70;;;;;;5082376;28;20052;-82
2021/09/27 02:04:49;;;;;;;8.60;4.47;;;19.30;96.70;;;;;;5086462;28;20489;-82
2021/09/27 02:07:22;;;;;;;5.53;4.07;;;19.30;96.70;;;;;;5088098;28;20067;-82
2021/09/27 02:09:58;;;;;;;11.82;4.95;;;19.30;96.70;;;;;;5067952;28;20055;-82
2021/09/27 02:12:29;;;;;;;;;;;19.30;96.70;;;;;;5085325;28;20109;-83
2021/09/27 02:15:07;;;;;;;8.43;4.68;;;19.30;96.70;;;;;;5087320;28;20449;-82
2021/09/27 02:17:41;;;;;;;23.83;6.32;;;19.30;96.70;;;;;;5087730;28;20040;-82
2021/09/27 02:20:18;;;;;;;7.13;4.60;;;19.30;96.70;;;;;;5084582;28;20048;-82
2021/09/27 02:22:52;;;;;;;8.07;5.13;;;19.30;96.70;;;;;;5088037;28;20146;-83
2021/09/27 02:25:31;;;;;;;7.82;4.40;;;19.30;96.70;;;;;;5081345;28;20142;-83
2021/09/27 02:28:03;;;;;;;8.00;5.10;;;19.30;96.70;;;;;;5100063;27;20036;-83
2021/09/27 02:30:40;;;;;;;6.35;4.85;;;19.30;96.70;;;;;;5084354;28;20036;-82
2021/09/27 02:33:17;;;;;;;7.10;5.47;;;19.20;96.70;;;;;;5085886;28;20055;-82
2021/09/27 02:35:53;;;;;;;8.02;4.82;;;19.20;96.70;;;;;;5080955;28;20075;-82
2021/09/27 02:38:26;;;;;;;7.75;5.10;;;19.20;96.70;;;;;;5083634;28;20130;-82
2021/09/27 02:41:02;;;;;;;7.07;4.97;;;19.20;96.70;;;;;;5085510;28;20509;-82
2021/09/27 02:43:31;;;;;;;8.15;5.35;;;19.10;96.70;;;;;;5084096;28;20044;-82
2021/09/27 02:46:01;;;;;;;7.47;5.05;;;19.10;96.70;;;;;;5084271;28;20044;-82
2021/09/27 02:48:41;;;;;;;6.65;5.10;;;19.10;96.70;;;;;;5081542;28;20047;-82
2021/09/27 02:51:13;;;;;;;7.28;5.28;;;19.00;96.70;;;;;;5080679;28;20603;-82
2021/09/27 02:53:42;;;;;;;7.53;4.97;;;19.00;96.70;;;;;;5090477;28;20489;-82
2021/09/27 02:56:35;;;;;;;7.05;4.82;;;19.00;96.70;;;;;;5084955;28;20047;-82
2021/09/27 02:59:15;;;;;;;7.72;4.90;;;19.00;96.70;;;;;;5091677;28;20098;-83
2021/09/27 03:01:50;;;;;;;7.93;5.05;;;19.00;96.70;;;;;;5086934;28;20493;-82
2021/09/27 03:04:32;;;;;;;7.30;5.00;;;19.00;96.70;;;;;;5085806;28;20131;-82
2021/09/27 03:07:14;;;;;;;9.73;5.30;;;19.00;96.70;;;;;;5094378;28;20040;-82
2021/09/27 03:09:57;;;;;;;6.40;4.82;;;19.00;96.70;;;;;;5085280;28;20086;-82
2021/09/27 03:12:55;;;;;;;5.88;4.80;;;19.00;96.70;;;;;;5068886;28;20122;-84
2021/09/27 03:16:02;;;;;;;8.10;5.30;;;18.90;96.70;;;;;;5104112;27;20391;-82
2021/09/27 03:19:00;;;;;;;5.97;4.60;;;18.90;96.70;;;;;;5063743;28;20044;-82
2021/09/27 03:21:51;;;;;;;8.18;4.93;;;19.00;96.70;;;;;;5100655;28;20505;-83
2021/09/27 03:24:42;;;;;;;8.63;5.40;;;19.00;96.70;;;;;;5089445;28;20055;-82
2021/09/27 03:27:19;;;;;;;7.25;4.70;;;19.00;96.70;;;;;;5084502;28;20113;-82
2021/09/27 03:30:00;;;;;;;6.95;5.30;;;19.00;96.70;;;;;;5085178;28;20036;-82
2021/09/27 03:32:42;;;;;;;6.78;5.13;;;19.10;96.70;;;;;;5083822;28;20043;-82
2021/09/27 03:35:17;;;;;;;9.20;4.78;;;19.10;96.70;;;;;;5098388;28;20059;-82
2021/09/27 03:37:55;;;;;;;9.65;5.05;;;19.10;96.70;;;;;;5085666;28;20063;-83
2021/09/27 03:40:37;;;;;;;9.52;5.18;;;19.00;96.70;;;;;;5088083;28;20101;-83
2021/09/27 03:43:18;;;;;;;8.27;4.82;;;19.10;96.70;;;;;;5097797;28;20413;-83
2021/09/27 03:45:57;;;;;;;5.35;4.53;;;19.10;96.70;;;;;;5067285;28;20056;-83
2021/09/27 03:48:33;;;;;;;8.07;4.28;;;19.10;96.70;;;;;;5084648;28;20191;-83
2021/09/27 03:51:08;;;;;;;6.45;4.78;;;19.10;96.70;;;;;;5087119;28;20048;-83
2021/09/27 03:53:43;;;;;;;7.72;4.60;;;19.00;96.70;;;;;;5086577;28;20394;-83
2021/09/27 03:56:22;;;;;;;9.10;4.40;;;19.00;96.70;;;;;;5083391;28;20058;-83
2021/09/27 03:58:58;;;;;;;5.22;4.22;;;19.10;96.70;;;;;;5069536;28;20467;-83
2021/09/27 04:01:38;;;;;;;5.95;4.35;;;19.10;96.70;;;;;;5065433;28;20424;-83
2021/09/27 04:04:39;;;;;;;9.85;5.07;;;19.10;96.70;;;;;;5083968;28;20044;-82
2021/09/27 04:07:26;;;;;;;10.13;4.53;;;19.10;96.70;;;;;;5080008;28;20447;-82
2021/09/27 04:10:07;;;;;;;6.40;4.70;;;19.00;96.70;;;;;;5085355;28;20064;-83
2021/09/27 04:12:52;;;;;;;8.30;4.40;;;19.00;96.70;;;;;;5086332;28;20154;-83
2021/09/27 04:15:34;;;;;;;7.93;5.07;;;18.90;96.70;;;;;;5084345;28;20463;-83
2021/09/27 04:18:11;;;;;;;7.95;4.57;;;18.90;96.70;;;;;;5099422;28;20056;-83
2021/09/27 04:20:52;;;;;;;7.25;4.45;;;18.90;96.70;;;;;;5081456;28;20477;-83
2021/09/27 04:23:31;;;;;;;7.00;4.65;;;18.90;96.70;;;;;;5066057;28;20043;-83
2021/09/27 04:26:08;;;;;;;6.47;4.38;;;18.90;96.70;;;;;;5086628;28;20055;-83
2021/09/27 04:29:11;;;;;;;6.63;4.70;;;18.90;96.70;;;;;;5065764;28;20486;-84
2021/09/27 04:31:46;;;;;;;7.07;4.72;;;18.90;96.70;;;;;;5065438;28;20123;-83
2021/09/27 04:34:43;;;;;;;11.52;5.45;;;18.90;96.70;;;;;;5080447;28;20491;-85
2021/09/27 04:37:17;;;;;;;;;;;19.00;96.70;;;;;;5081284;28;20144;-85
2021/09/27 04:39:48;;;;;;;8.07;4.65;;;19.00;96.70;;;;;;5081998;28;19923;-84
2021/09/27 04:42:57;;;;;;;10.95;5.63;;;19.00;96.70;;;;;;5086668;28;20044;-84
2021/09/27 04:45:55;;;;;;;7.25;5.10;;;19.00;96.70;;;;;;5065543;28;20524;-85
2021/09/27 04:48:53;;;;;;;9.15;5.68;;;19.00;96.70;;;;;;5080796;28;20229;-85
2021/09/27 04:51:37;;;;;;;8.32;5.05;;;19.00;96.70;;;;;;5097247;28;20048;-84
2021/09/27 04:54:44;;;;;;;7.78;5.88;;;19.00;96.70;;;;;;5102432;28;20721;-84
2021/09/27 04:57:25;;;;;;;8.60;5.95;;;19.00;96.70;;;;;;5057545;28;20043;-82
2021/09/27 05:00:05;;;;;;;8.48;5.30;;;19.10;96.70;;;;;;5084616;28;20049;-81
2021/09/27 05:02:55;;;;;;;6.10;4.93;;;19.10;96.70;;;;;;5098186;28;20059;-81
2021/09/27 05:05:39;;;;;;;7.25;5.35;;;19.10;96.70;;;;;;5102125;28;20036;-85
2021/09/27 05:08:36;;;;;;;11.23;6.60;;;19.10;96.70;;;;;;5100087;28;20159;-85
2021/09/27 05:11:35;;;;;;;11.07;5.45;;;19.10;96.70;;;;;;5085766;28;20055;-85
2021/09/27 05:18:36;;;;;;;10.15;5.95;;;19.10;96.70;;;;;;5105787;28;20558;-85
2021/09/27 05:21:21;;;;;;;8.20;5.28;;;19.20;96.70;;;;;;5096029;28;20097;-85
2021/09/27 05:24:07;;;;;;;9.48;5.50;;;19.20;96.70;;;;;;5085736;28;20043;-84
2021/09/27 05:26:50;;;;;;;8.20;5.35;;;19.20;96.70;;;;;;5101057;28;20081;-84
2021/09/27 05:29:39;;;;;;;7.38;5.15;;;19.20;96.70;;;;;;5098165;28;20042;-84
2021/09/27 05:32:22;;;;;;;6.45;4.63;;;19.20;96.70;;;;;;5102029;28;20484;-85
2021/09/27 05:35:08;;;;;;;9.40;5.13;;;19.20;96.70;;;;;;5108486;28;20040;-85
2021/09/27 05:37:51;;;;;;;7.88;5.25;;;19.30;96.70;;;;;;5101868;28;20427;-84
2021/09/27 05:40:31;;;;;;;11.45;5.55;;;19.20;96.70;;;;;;5090844;28;20405;-85
2021/09/27 05:43:12;;;;;;;10.40;6.35;;;19.30;96.70;;;;;;5106511;28;20048;-84
2021/09/27 05:45:51;;;;;;;10.57;5.40;;;19.30;96.70;;;;;;5085222;28;20040;-85
2021/09/27 05:48:26;;;;;;;10.10;5.53;;;19.30;96.70;;;;;;5086927;28;20107;-85
2021/09/27 05:51:04;;;;;;;8.63;5.32;;;19.30;96.70;;;;;;5086814;28;20061;-85
2021/09/27 05:53:44;;;;;;;7.93;5.07;;;19.30;96.70;;;;;;5084092;28;20454;-84
2021/09/27 05:56:20;;;;;;;7.82;5.03;;;19.40;96.70;;;;;;5101251;28;20063;-85
2021/09/27 05:58:57;;;;;;;12.32;5.70;;;19.40;96.70;;;;;;5068084;27;20035;-84
2021/09/27 06:01:36;;;;;;;8.73;5.15;;;19.40;96.70;;;;;;5087406;28;20044;-84
2021/09/27 06:04:19;;;;;;;9.73;5.85;;;19.40;96.70;;;;;;5103663;28;20046;-85
2021/09/27 06:06:54;;;;;;;6.82;5.57;;;19.40;96.70;;;;;;5086799;28;20031;-84
2021/09/27 06:09:37;;;;;;;8.20;5.60;;;19.40;96.70;;;;;;5089370;28;20047;-84
2021/09/27 06:12:15;;;;;;;11.27;5.95;;;19.40;96.70;;;;;;5097630;28;20113;-85
2021/09/27 06:14:43;;;;;;;10.30;5.97;;;19.50;96.70;;;;;;5091950;28;20036;-84
2021/09/27 06:17:22;;;;;;;10.20;5.53;;;19.50;96.70;;;;;;5104538;27;20054;-84
2021/09/27 06:20:01;;;;;;;7.90;5.22;;;19.50;96.70;;;;;;5087503;28;20457;-84
2021/09/27 06:22:57;;;;;;;10.93;6.22;;;19.50;96.70;;;;;;5088354;28;20055;-84
2021/09/27 06:25:34;;;;;;;7.47;5.07;;;19.60;96.70;;;;;;5095362;27;20071;-84
2021/09/27 06:28:09;;;;;;;8.68;4.90;;;19.70;96.70;;;;;;5112823;27;20035;-84
2021/09/27 06:30:43;;;;;;;11.40;6.30;;;19.80;96.70;;;;;;5105768;27;20067;-84
2021/09/27 06:33:22;;;;;;;15.60;7.82;;;19.90;96.70;;;;;;5103830;27;20035;-84
2021/09/27 06:35:52;;;;;;;15.23;8.48;;;20.00;96.70;;;;;;5067785;28;20044;-85
2021/09/27 06:38:29;;;;;;;17.67;8.95;;;20.00;96.70;;;;;;5105894;28;20051;-85
2021/09/27 06:40:58;;;;;;;;;;;20.00;96.70;;;;;;5071619;28;20042;-85
2021/09/27 06:43:27;;;;;;;20.08;8.45;;;20.00;96.70;;;;;;5087578;28;19923;-84
2021/09/27 06:45:56;;;;;;;18.55;9.15;;;20.20;96.70;;;;;;5087597;27;20063;-84
2021/09/27 06:48:25;;;;;;;16.48;8.90;;;20.20;96.70;;;;;;5109277;27;20043;-85
2021/09/27 06:50:55;;;;;;;19.08;8.77;;;20.30;96.70;;;;;;5104400;27;20143;-85
2021/09/27 06:53:25;;;;;;;19.98;9.43;;;20.20;96.70;;;;;;5090110;28;20035;-84
2021/09/27 06:55:55;;;;;;;18.80;8.65;;;20.30;96.70;;;;;;5105249;27;20066;-85
2021/09/27 06:58:24;;;;;;;22.25;9.07;;;20.30;96.70;;;;;;5087357;28;20121;-85
2021/09/27 07:00:54;;;;;;;20.40;9.30;;;20.40;96.70;;;;;;5088934;28;20051;-88
2021/09/27 07:03:24;;;;;;;20.92;9.25;;;20.40;96.70;;;;;;5073442;28;20051;-88
2021/09/27 07:05:52;;;;;;;22.42;9.55;;;20.40;96.70;;;;;;5089286;28;20067;-87
2021/09/27 07:08:20;;;;;;;22.95;10.00;;;20.40;96.70;;;;;;5111296;27;20038;-88
2021/09/27 07:10:51;;;;;;;19.48;9.73;;;20.40;96.70;;;;;;5078205;28;20493;-86
2021/09/27 07:13:21;;;;;;;19.77;9.10;;;20.40;96.70;;;;;;5089061;28;20243;-86
2021/09/27 07:15:49;;;;;;;11.65;6.93;;;20.40;96.70;;;;;;5089393;27;20050;-89
2021/09/27 07:18:18;;;;;;;9.07;5.60;;;20.40;96.70;;;;;;5090167;28;20993;-88
2021/09/27 07:20:46;;;;;;;11.10;5.00;;;20.40;96.70;;;;;;5109739;27;20043;-87
2021/09/27 07:23:15;;;;;;;9.38;4.65;;;20.50;96.70;;;;;;5088078;28;20560;-89
2021/09/27 07:25:43;;;;;;;6.85;4.45;;;20.50;96.70;;;;;;5071837;28;20846;-88
2021/09/27 07:28:11;;;;;;;9.70;5.50;;;20.50;96.70;;;;;;5107512;27;20034;-87
2021/09/27 07:30:41;;;;;;;9.85;5.20;;;20.60;96.70;;;;;;5113351;27;20108;-89
2021/09/27 07:33:11;;;;;;;9.38;5.50;;;20.60;96.70;;;;;;5087721;28;20039;-89
2021/09/27 07:35:39;;;;;;;10.32;5.18;;;20.60;96.70;;;;;;5095158;27;20046;-84
2021/09/27 07:38:07;;;;;;;7.25;4.47;;;20.70;96.70;;;;;;5085842;27;20074;-83
2021/09/27 07:40:38;;;;;;;8.80;5.07;;;20.80;96.70;;;;;;5089007;28;20039;-85
2021/09/27 07:43:07;;;;;;;7.18;4.43;;;20.80;96.70;;;;;;5106458;27;20130;-85
2021/09/27 07:45:36;;;;;;;7.43;4.13;;;20.90;96.70;;;;;;5085698;28;20047;-86
2021/09/27 07:48:10;;;;;;;8.25;4.07;;;20.90;96.70;;;;;;5070915;28;20075;-83
2021/09/27 07:50:40;;;;;;;5.97;4.35;;;21.00;96.70;;;;;;5086099;28;20055;-83
2021/09/27 07:53:08;;;;;;;7.78;4.40;;;21.00;96.70;;;;;;5087225;28;20519;-82
2021/09/27 07:55:37;;;;;;;7.13;4.43;;;21.10;96.70;;;;;;5105506;28;20039;-83
2021/09/27 07:58:05;;;;;;;6.68;4.00;;;21.10;96.70;;;;;;5106169;27;20381;-85
2021/09/27 08:00:34;;;;;;;7.95;4.50;;;21.20;96.70;;;;;;5105193;28;20039;-92
2021/09/27 08:03:05;;;;;;;10.35;4.70;;;21.20;96.70;;;;;;5091508;28;20085;-86
2021/09/27 08:05:34;;;;;;;42.95;8.60;;;21.30;96.70;;;;;;5088596;28;20090;-88
2021/09/27 08:08:02;;;;;;;11.80;4.32;;;21.30;96.70;;;;;;5087169;28;20131;-87
2021/09/27 08:10:32;;;;;;;11.02;4.88;;;21.50;96.70;;;;;;5071542;28;20039;-87
2021/09/27 08:13:02;;;;;;;10.52;4.53;;;21.50;96.70;;;;;;5090035;28;20303;-87
2021/09/27 08:15:35;;;;;;;7.18;3.95;;;21.50;96.70;;;;;;5072077;28;20500;-87
2021/09/27 08:18:06;;;;;;;9.85;4.22;;;21.60;96.70;;;;;;5087216;28;20051;-89
2021/09/27 08:20:39;;;;;;;6.47;3.75;;;21.70;96.70;;;;;;5067600;28;20036;-88
2021/09/27 08:23:09;;;;;;;8.15;4.28;;;21.70;96.70;;;;;;5087746;28;20044;-90
2021/09/27 08:25:38;;;;;;;10.32;3.80;;;21.80;96.70;;;;;;5088091;28;20043;-92
2021/09/27 08:28:09;;;;;;;8.02;4.70;;;21.90;96.70;;;;;;5109981;27;20035;-90
2021/09/27 08:30:41;;;;;;;14.38;4.65;;;22.00;96.70;;;;;;5107757;27;20374;-89
2021/09/27 08:33:13;;;;;;;7.65;3.55;;;22.10;96.70;;;;;;5102193;28;20051;-91
2021/09/27 08:35:41;;;;;;;5.53;3.55;;;22.20;96.70;;;;;;5088984;28;20045;-90
2021/09/27 08:38:10;;;;;;;7.43;4.10;;;22.20;96.70;;;;;;5090227;28;20527;-89
2021/09/27 08:40:54;;;;;;;8.23;3.88;;;22.30;96.70;;;;;;5086210;28;20412;-81
2021/09/27 08:43:36;;;;;;;6.57;4.32;;;22.30;96.70;;;;;;5088095;28;20140;-90
2021/09/27 08:46:10;;;;;;;11.38;3.78;;;22.40;96.70;;;;;;5082351;28;20492;-89
2021/09/27 08:48:45;;;;;;;6.07;4.22;;;22.50;96.70;;;;;;5087759;28;20035;-89
2021/09/27 08:51:14;;;;;;;6.82;4.13;;;22.50;96.70;;;;;;5091972;28;20047;-91
2021/09/27 08:53:48;;;;;;;5.95;3.75;;;22.60;96.70;;;;;;5087922;28;20044;-89
2021/09/27 08:56:21;;;;;;;5.22;4.53;;;22.70;96.70;;;;;;5105394;28;20046;-84
2021/09/27 08:58:55;;;;;;;7.97;3.95;;;22.80;96.70;;;;;;5086277;28;20047;-88
2021/09/27 09:01:29;;;;;;;7.93;4.13;;;22.80;96.70;;;;;;5099429;28;20473;-88
2021/09/27 09:04:03;;;;;;;9.88;4.28;;;22.90;96.70;;;;;;5105971;28;20078;-89
2021/09/27 09:06:35;;;;;;;8.35;4.40;;;23.00;96.70;;;;;;5086845;28;20127;-87
2021/09/27 09:09:10;;;;;;;7.75;4.38;;;23.00;96.70;;;;;;5084478;28;20504;-88
2021/09/27 09:11:43;;;;;;;10.23;4.20;;;23.10;96.70;;;;;;5108002;28;20059;-86
2021/09/27 09:14:19;;;;;;;8.85;4.47;;;23.20;96.70;;;;;;5086711;28;20051;-88
2021/09/27 09:16:50;;;;;;;10.57;5.07;;;23.30;96.70;;;;;;5088233;28;20250;-91
2021/09/27 09:19:23;;;;;;;6.32;4.63;;;23.30;96.70;;;;;;5083813;28;20144;-86
2021/09/27 09:21:53;;;;;;;10.77;5.40;;;23.30;96.70;;;;;;5105961;28;20047;-86
2021/09/27 09:24:27;;;;;;;8.15;4.88;;;23.40;96.70;;;;;;5094726;28;20096;-85
2021/09/27 09:27:02;;;;;;;11.23;5.80;;;23.50;96.70;;;;;;5096873;28;20044;-85
2021/09/27 09:29:34;;;;;;;13.68;6.43;;;23.60;96.70;;;;;;5083518;28;20035;-85
2021/09/27 09:32:11;;;;;;;12.13;6.20;;;23.60;96.70;;;;;;5086853;28;20458;-86
2021/09/27 09:34:42;;;;;;;14.93;6.55;;;23.70;96.70;;;;;;5072393;28;20069;-88
2021/09/27 09:37:20;;;;;;;12.25;6.03;;;23.80;96.70;;;;;;5092231;28;20043;-88
2021/09/27 09:40:02;;;;;;;10.30;5.10;;;23.80;96.70;;;;;;5074482;28;20089;-88
2021/09/27 09:42:33;;;;;;;14.45;6.68;;;23.90;96.70;;;;;;5108468;28;20043;-85
2021/09/27 09:45:18;;;;;;;11.13;6.07;;;24.00;96.70;;;;;;5085441;27;20077;-87
2021/09/27 09:47:47;;;;;;;13.32;6.95;;;24.10;96.70;;;;;;5089425;28;20044;-86
2021/09/27 09:50:28;;;;;;;13.73;6.65;;;24.20;96.70;;;;;;5089300;28;20100;-88
2021/09/27 09:52:58;;;;;;;11.40;6.60;;;24.30;96.70;;;;;;5113381;27;20507;-88
2021/09/27 09:55:34;;;;;;;11.70;7.35;;;24.30;96.70;;;;;;5093615;28;20476;-88
2021/09/27 09:58:04;;;;;;;13.63;7.15;;;24.40;96.70;;;;;;5089245;28;20392;-88
2021/09/27 10:00:42;;;;;;;11.05;7.57;;;24.40;96.70;;;;;;5076622;28;20097;-88
2021/09/27 10:03:13;;;;;;;11.52;6.72;;;24.50;96.70;;;;;;5089797;27;20065;-87
2021/09/27 10:05:48;;;;;;;12.35;6.70;;;24.60;96.70;;;;;;5091267;28;20047;-87
2021/09/27 10:08:21;;;;;;;12.38;6.90;;;24.70;96.70;;;;;;5105558;28;20517;-87
2021/09/27 10:10:56;;;;;;;14.07;7.35;;;24.70;96.70;;;;;;5091446;28;20036;-87
2021/09/27 10:13:35;;;;;;;11.68;7.32;;;24.80;96.70;;;;;;5090637;28;20046;-87
2021/09/27 10:16:06;;;;;;;12.77;6.88;;;24.90;96.70;;;;;;5101745;28;20534;-87
2021/09/27 10:18:37;;;;;;;13.27;7.28;;;25.00;96.70;;;;;;5092307;28;20043;-87
2021/09/27 10:21:18;;;;;;;10.82;6.53;;;25.20;96.70;;;;;;5086698;28;20048;-88
2021/09/27 10:23:49;;;;;;;11.60;6.93;;;25.30;96.70;;;;;;5101469;27;20039;-87
2021/09/27 10:26:26;;;;;;;11.48;6.93;;;25.30;96.70;;;;;;5088941;28;20039;-87
2021/09/27 10:29:03;;;;;;;10.52;7.05;;;25.20;96.70;;;;;;5083675;28;20039;-88
2021/09/27 10:31:34;;;;;;;11.88;6.90;;;25.20;96.70;;;;;;5090254;28;20500;-89
2021/09/27 10:34:09;;;;;;;12.88;6.97;;;25.30;96.70;;;;;;5090046;28;20047;-88
2021/09/27 10:36:44;;;;;;;12.27;6.88;;;25.30;96.70;;;;;;5073572;27;20108;-87
2021/09/27 10:39:14;;;;;;;10.98;6.75;;;25.40;96.70;;;;;;5106211;27;20674;-88
2021/09/27 10:41:48;;;;;;;11.90;7.05;;;25.50;96.70;;;;;;5086626;28;20073;-86
2021/09/27 10:44:21;;;;;;;12.57;6.28;;;25.60;96.70;;;;;;5107972;28;20047;-88
2021/09/27 10:46:53;;;;;;;14.15;7.07;;;25.70;96.70;;;;;;5087681;28;20043;-88
2021/09/27 10:49:25;;;;;;;11.85;7.30;;;25.80;96.70;;;;;;5091091;28;20437;-89
2021/09/27 10:52:06;;;;;;;9.35;6.03;;;25.90;96.70;;;;;;5085887;28;20079;-85
2021/09/27 10:54:40;;;;;;;11.00;6.57;;;25.90;96.70;;;;;;5084455;28;20048;-87
2021/09/27 10:57:15;;;;;;;9.27;6.82;;;25.90;96.70;;;;;;5086851;28;20052;-87
2021/09/27 10:59:50;;;;;;;12.52;6.90;;;26.00;96.70;;;;;;5085413;28;20036;-85
2021/09/27 11:02:26;;;;;;;10.48;6.50;;;26.20;96.70;;;;;;5086757;28;20067;-87
2021/09/27 11:05:01;;;;;;;11.27;6.65;;;26.20;96.70;;;;;;5085189;28;20408;-87
2021/09/27 11:07:40;;;;;;;10.32;6.85;;;26.20;96.70;;;;;;5081616;28;20036;-88
2021/09/27 11:10:29;;;;;;;10.02;6.68;;;26.20;96.70;;;;;;5085905;28;20381;-88
2021/09/27 11:12:58;;;;;;;12.50;6.25;;;26.20;96.70;;;;;;5087066;28;20070;-89
2021/09/27 11:15:30;;;;;;;13.05;7.07;;;26.00;96.70;;;;;;5089058;28;20064;-88
2021/09/27 11:18:09;;;;;;;13.93;7.22;;;26.00;96.70;;;;;;5090042;28;20036;-87
2021/09/27 11:20:58;;;;;;;11.68;6.50;;;26.00;96.70;;;;;;5085541;28;20094;-89
2021/09/27 11:23:32;;;;;;;9.27;6.30;;;26.00;96.70;;;;;;5086566;28;20047;-85
2021/09/27 11:26:26;;;;;;;8.60;6.15;;;26.20;96.70;;;;;;5103047;27;20085;-87
2021/09/27 11:29:15;;;;;;;7.53;6.10;;;26.50;96.70;;;;;;5084844;28;20039;-87
2021/09/27 11:31:44;;;;;;;11.88;6.72;;;26.70;96.70;;;;;;5085177;28;20048;-88
2021/09/27 11:34:42;;;;;;;14.45;7.55;;;26.70;96.70;;;;;;5085252;28;20072;-88
2021/09/27 11:37:18;;;;;;;10.88;6.82;;;26.80;96.70;;;;;;5084376;28;20398;-90
2021/09/27 11:39:51;;;;;;;14.75;7.68;;;27.00;96.70;;;;;;5083049;28;20073;-88
2021/09/27 11:42:33;;;;;;;13.52;7.47;;;26.90;96.70;;;;;;5102036;28;20401;-87
2021/09/27 11:45:25;;;;;;;11.43;7.10;;;26.90;96.70;;;;;;5085425;28;20459;-91
2021/09/27 11:48:01;;;;;;;10.93;7.95;;;26.80;96.70;;;;;;5095782;28;20052;-90
2021/09/27 11:51:01;;;;;;;9.60;7.18;;;26.80;96.70;;;;;;5073625;28;20146;-89
2021/09/27 11:54:01;;;;;;;10.13;7.57;;;27.00;96.70;;;;;;5082655;28;20044;-88
2021/09/27 11:56:39;;;;;;;12.57;8.60;;;27.20;96.70;;;;;;5082535;28;20052;-88
2021/09/27 11:59:12;;;;;;;13.95;9.95;;;27.20;96.70;;;;;;5085757;28;20074;-89
2021/09/27 12:01:52;;;;;;;13.57;9.40;;;27.20;96.70;;;;;;5087319;28;20075;-90
2021/09/27 12:04:38;;;;;;;14.88;9.57;;;27.30;96.70;;;;;;5086639;28;20044;-89
2021/09/27 12:07:11;;;;;;;11.43;10.13;;;27.30;96.70;;;;;;5085538;28;20044;-90
2021/09/27 12:09:47;;;;;;;12.35;9.68;;;27.50;96.70;;;;;;5084962;28;20459;-88
2021/09/27 12:12:26;;;;;;;12.98;10.00;;;27.50;96.70;;;;;;5085429;28;20127;-90
2021/09/27 12:14:59;;;;;;;14.52;10.52;;;27.50;96.70;;;;;;5086860;28;20052;-90
2021/09/27 12:17:32;;;;;;;14.30;11.32;;;27.50;96.70;;;;;;5068447;28;20052;-90
2021/09/27 12:20:06;;;;;;;11.65;9.52;;;27.60;96.70;;;;;;5071672;28;20059;-90
2021/09/27 12:22:41;;;;;;;14.40;11.98;;;27.50;96.70;;;;;;5083658;28;20052;-89
2021/09/27 12:25:13;;;;;;;14.32;11.35;;;27.70;96.70;;;;;;5088350;28;20040;-90
2021/09/27 12:27:52;;;;;;;16.10;12.68;;;27.90;96.70;;;;;;5084482;28;20048;-89
2021/09/27 12:30:23;;;;;;;15.30;13.23;;;28.00;96.70;;;;;;5083461;28;20064;-90
2021/09/27 12:32:56;;;;;;;17.77;12.80;;;28.10;96.70;;;;;;5067654;28;20036;-89
2021/09/27 12:35:29;;;;;;;16.98;12.40;;;28.10;96.70;;;;;;5083573;28;20051;-90
2021/09/27 12:37:58;;;;;;;13.07;10.38;;;28.10;96.70;;;;;;5066376;28;20044;-88
2021/09/27 12:40:32;;;;;;;20.85;11.82;;;28.10;96.70;;;;;;5064961;28;20044;-90
2021/09/27 12:43:08;;;;;;;14.73;10.65;;;28.00;96.70;;;;;;5092453;28;20051;-88
2021/09/27 12:45:41;;;;;;;14.30;11.32;;;28.00;96.70;;;;;;5085209;28;20077;-90
2021/09/27 12:48:18;;;;;;;13.65;11.23;;;27.90;96.70;;;;;;5084563;28;20054;-92
2021/09/27 12:50:52;;;;;;;14.43;12.65;;;28.00;96.70;;;;;;5087434;28;20044;-90
2021/09/27 12:53:26;;;;;;;14.40;12.38;;;28.00;96.70;;;;;;5106655;28;20067;-90
2021/09/27 12:55:56;;;;;;;14.07;12.02;;;28.10;96.70;;;;;;5086873;28;20043;-90
2021/09/27 12:58:31;;;;;;;18.10;14.75;;;28.00;96.70;;;;;;5087524;28;20209;-89
2021/09/27 13:01:02;;;;;;;15.23;13.23;;;27.90;96.70;;;;;;5104355;28;20108;-92
2021/09/27 13:03:31;;;;;;;13.15;11.60;;;28.00;96.70;;;;;;5091565;28;20039;-87
2021/09/27 13:06:10;;;;;;;20.83;13.23;;;28.10;96.70;;;;;;5104285;28;20031;-89
2021/09/27 13:08:44;;;;;;;17.05;13.85;;;28.10;96.70;;;;;;5108832;28;20042;-91
2021/09/27 13:11:37;;;;;;;14.88;13.18;;;28.10;96.70;;;;;;5106885;28;20060;-90
2021/09/27 13:14:17;;;;;;;18.63;13.35;;;28.20;96.70;;;;;;5073175;28;20086;-91
2021/09/27 13:16:47;;;;;;;14.35;12.85;;;28.40;96.70;;;;;;5077301;28;20055;-92
2021/09/27 13:19:35;;;;;;;15.57;13.38;;;28.30;96.70;;;;;;5074418;28;20044;-92
2021/09/27 13:22:04;;;;;;;14.57;13.10;;;28.30;96.70;;;;;;5110454;28;20366;-91
2021/09/27 13:24:34;;;;;;;16.05;12.80;;;28.30;96.70;;;;;;5108084;28;20036;-89
2021/09/27 13:27:09;;;;;;;16.90;13.10;;;28.20;96.70;;;;;;5109747;28;20035;-91
2021/09/27 13:29:44;;;;;;;16.88;14.45;;;28.40;96.70;;;;;;5091446;28;20067;-91
2021/09/27 13:32:34;;;;;;;14.07;11.63;;;28.30;96.70;;;;;;5091874;28;20247;-90
2021/09/27 13:35:19;;;;;;;14.45;11.80;;;28.20;96.70;;;;;;5083970;28;20535;-90
2021/09/27 13:38:05;;;;;;;12.80;11.32;;;28.10;96.70;;;;;;5091444;28;20045;-88